Time;durP1;ratioP1;P1;durP2;ratioP2;P2;SDS_P1;SDS_P2;PMS_P1;PMS_P2;Temp;Humidity;BMP_temperature;BMP_pressure;BME280_temperature;BME280_humidity;BME280_pressure;Samples;Min_cycle;Max_cycle;Signal;HPM_P1;HPM_P2
2024/01/08 00:01:25;;;;;;;5.87;2.93;;;;;;;-1.03;100.00;102925.63;5056067;28;20468;-72
2024/01/08 00:03:54;;;;;;;7.07;3.10;;;;;;;-1.16;100.00;102921.84;5059476;28;20426;-72
2024/01/08 00:06:23;;;;;;;6.90;3.00;;;;;;;-1.54;100.00;102840.22;5064731;28;20855;-72
2024/01/08 00:08:52;;;;;;;7.90;3.53;;;;;;;-1.05;100.00;102898.47;5054373;28;20464;-72
2024/01/08 00:11:20;;;;;;;6.87;2.83;;;;;;;-1.54;100.00;102815.69;5053731;28;20456;-72
2024/01/08 00:13:52;;;;;;;6.00;2.87;;;;;;;-1.70;100.00;102774.31;5056009;28;20984;-72
2024/01/08 00:16:19;;;;;;;6.57;2.70;;;;;;;-0.89;100.00;102881.97;5056721;28;20423;-72
2024/01/08 00:18:45;;;;;;;6.57;3.17;;;;;;;-0.83;100.00;102861.44;5060295;28;20449;-72
2024/01/08 00:21:13;;;;;;;7.87;2.93;;;;;;;-1.54;100.00;102784.09;5054670;28;20514;-72
2024/01/08 00:23:54;;;;;;;7.37;3.20;;;;;;;-0.80;100.00;102902.59;5055525;28;20216;-72
2024/01/08 00:26:20;;;;;;;5.20;2.83;;;;;;;-0.73;100.00;102889.03;5059232;28;20426;-72
2024/01/08 00:28:54;;;;;;;6.63;2.90;;;;;;;-0.77;100.00;102890.13;5057242;28;20463;-72
2024/01/08 00:31:20;;;;;;;6.30;3.27;;;;;;;-1.10;100.00;102870.66;5056931;28;20579;-72
2024/01/08 00:33:49;;;;;;;6.93;3.80;;;;;;;-1.04;100.00;102859.81;5057680;28;20500;-72
2024/01/08 00:36:14;;;;;;;5.40;2.80;;;;;;;-0.82;100.00;102902.66;5056788;28;20238;-72
2024/01/08 00:38:40;;;;;;;7.20;3.10;;;;;;;-1.26;100.00;102829.25;5058130;28;20463;-72
2024/01/08 00:41:06;;;;;;;10.30;3.50;;;;;;;-1.00;100.00;102885.09;5055491;28;20266;-72
2024/01/08 00:43:32;;;;;;;7.90;3.50;;;;;;;-0.86;100.00;102874.75;5059534;28;20202;-72
2024/01/08 00:45:57;;;;;;;7.57;3.50;;;;;;;-1.26;100.00;102794.19;5055717;28;20422;-72
2024/01/08 00:48:25;;;;;;;5.93;2.70;;;;;;;-0.82;100.00;102878.94;5052279;28;20462;-72
2024/01/08 00:50:54;;;;;;;6.03;2.40;;;;;;;-0.67;100.00;102898.41;5057455;28;20196;-72
2024/01/08 00:53:19;;;;;;;6.60;3.20;;;;;;;-0.67;100.00;102890.50;5058424;28;20458;-71
2024/01/08 00:55:48;;;;;;;5.43;3.17;;;;;;;-0.66;100.00;102889.59;5071976;28;20468;-72
2024/01/08 00:58:16;;;;;;;7.90;3.70;;;;;;;-1.37;100.00;102765.72;5057857;28;20584;-72
2024/01/08 01:00:42;;;;;;;6.90;3.47;;;;;;;-0.80;100.00;102868.34;5050323;28;20445;-72
2024/01/08 01:03:15;;;;;;;6.40;3.37;;;;;;;-0.66;100.00;102862.41;5050679;28;20827;-72
2024/01/08 01:05:45;;;;;;;6.37;3.00;;;;;;;-0.73;100.00;102854.75;5056147;28;20199;-71
2024/01/08 01:08:11;;;;;;;7.43;3.30;;;;;;;-0.74;100.00;102852.22;5056247;28;20438;-72
2024/01/08 01:10:37;;;;;;;7.50;3.57;;;;;;;-0.66;100.00;102839.53;5057340;28;20434;-71
2024/01/08 01:13:02;;;;;;;8.10;4.03;;;;;;;-0.24;100.00;102862.84;5060134;28;20282;-72
2024/01/08 01:15:28;;;;;;;6.60;3.97;;;;;;;-0.67;100.00;102853.59;5056565;28;20476;-71
2024/01/08 01:17:54;;;;;;;7.47;4.10;;;;;;;-0.06;100.00;102860.19;5051100;28;20204;-72
2024/01/08 01:20:19;;;;;;;7.27;3.40;;;;;;;-0.53;100.00;102860.84;5058827;28;20184;-71
2024/01/08 01:22:45;;;;;;;6.73;3.80;;;;;;;-1.07;100.00;102742.31;5052613;28;20441;-71
2024/01/08 01:25:10;;;;;;;9.77;4.07;;;;;;;-0.38;100.00;102889.06;5057491;28;20229;-72
2024/01/08 01:27:36;;;;;;;7.30;3.90;;;;;;;-0.79;100.00;102799.72;5056711;28;20211;-72
2024/01/08 01:30:17;;;;;;;9.73;4.00;;;;;;;-0.26;100.00;102891.09;5056644;28;20188;-73
2024/01/08 01:32:42;;;;;;;7.60;3.83;;;;;;;-0.49;100.00;102860.63;5054377;28;20625;-72
2024/01/08 01:35:08;;;;;;;7.10;3.30;;;;;;;-0.27;100.00;102873.53;5057112;28;20434;-72
2024/01/08 01:37:36;;;;;;;8.20;3.53;;;;;;;-0.29;100.00;102909.72;5054067;28;20200;-72
2024/01/08 01:40:02;;;;;;;9.90;4.07;;;;;;;-0.38;100.00;102909.31;5057149;28;20175;-72
2024/01/08 01:42:28;;;;;;;6.30;3.43;;;;;;;-0.14;100.00;102888.78;5053824;28;20442;-71
2024/01/08 01:44:56;;;;;;;6.93;3.60;;;;;;;-0.87;100.00;102803.69;5054564;28;20446;-72
2024/01/08 01:47:23;;;;;;;7.40;3.57;;;;;;;-0.50;100.00;102876.50;5057456;28;20211;-73
2024/01/08 01:49:50;;;;;;;7.30;4.23;;;;;;;-0.87;100.00;102788.72;5056634;28;20820;-72
2024/01/08 01:52:20;;;;;;;6.63;3.70;;;;;;;-0.62;100.00;102867.41;5054920;28;20472;-72
2024/01/08 01:54:51;;;;;;;8.70;3.47;;;;;;;-0.38;100.00;102910.16;5051508;28;20431;-71
2024/01/08 01:57:22;;;;;;;8.13;3.80;;;;;;;-0.49;100.00;102941.50;5057401;28;20438;-72
2024/01/08 01:59:48;;;;;;;7.10;3.33;;;;;;;-0.34;100.00;102971.53;5055889;28;20414;-72
2024/01/08 02:02:14;;;;;;;8.13;3.87;;;;;;;-0.59;100.00;102934.94;5052032;28;20862;-73
2024/01/08 02:04:43;;;;;;;7.57;3.27;;;;;;;-0.40;100.00;102950.72;5056425;28;20183;-74
2024/01/08 02:07:09;;;;;;;6.63;3.50;;;;;;;-1.30;100.00;102785.59;5059262;28;20283;-73
2024/01/08 02:09:37;;;;;;;6.63;3.03;;;;;;;-0.15;100.00;102971.44;5062794;28;20923;-73
2024/01/08 02:12:14;;;;;;;5.97;3.13;;;;;;;-0.21;100.00;102991.06;5058190;28;20414;-73
2024/01/08 02:14:42;;;;;;;6.27;3.03;;;;;;;-1.10;100.00;102883.81;5067343;28;20536;-73
2024/01/08 02:17:15;;;;;;;6.50;3.40;;;;;;;-0.46;100.00;102989.66;5057880;28;20526;-71
2024/01/08 02:19:41;;;;;;;5.80;2.90;;;;;;;-0.55;100.00;102981.31;5056710;28;20427;-71
2024/01/08 02:22:12;;;;;;;6.70;3.40;;;;;;;-0.40;100.00;102985.00;5058916;28;20435;-71
2024/01/08 02:24:44;;;;;;;8.30;3.43;;;;;;;-0.65;100.00;102970.38;5058813;28;20273;-71
2024/01/08 02:27:13;;;;;;;7.27;3.50;;;;;;;-0.42;100.00;103000.03;5054918;28;20457;-72
2024/01/08 02:29:38;;;;;;;5.40;2.97;;;;;;;-0.76;100.00;102915.53;5058513;28;20848;-72
2024/01/08 02:32:06;;;;;;;6.93;3.30;;;;;;;-0.69;100.00;102943.31;5057949;28;20438;-72
2024/01/08 02:34:38;;;;;;;8.03;3.97;;;;;;;-0.26;100.00;103017.69;5058484;28;20218;-72
2024/01/08 02:37:06;;;;;;;5.60;2.93;;;;;;;-0.19;100.00;103034.06;5057047;28;20511;-71
2024/01/08 02:39:32;;;;;;;8.10;3.80;;;;;;;-0.61;100.00;102987.72;5059631;28;21014;-72
2024/01/08 02:42:01;;;;;;;6.13;2.90;;;;;;;-0.14;100.00;103041.75;5057292;28;20465;-72
2024/01/08 02:44:29;;;;;;;8.40;3.47;;;;;;;-0.39;100.00;103032.38;5053440;28;20183;-72
2024/01/08 02:46:55;;;;;;;5.90;3.00;;;;;;;-0.11;100.00;103091.72;5113741;22;20593;-72
2024/01/08 02:49:20;;;;;;;8.70;3.00;;;;;;;-0.33;100.00;103113.84;5110479;27;20438;-72
2024/01/08 02:51:46;;;;;;;7.87;2.83;;;;;;;-0.25;100.00;103081.84;5110545;27;20194;-72
2024/01/08 02:54:11;;;;;;;5.97;2.67;;;;;;;-0.15;100.00;103124.44;5090029;28;20222;-72
2024/01/08 02:56:36;;;;;;;8.60;2.80;;;;;;;-1.01;100.00;103046.72;5091803;28;20172;-72
2024/01/08 02:59:06;;;;;;;6.53;2.80;;;;;;;-0.44;100.00;103123.19;5109813;28;20178;-72
2024/01/08 03:01:32;;;;;;;5.13;2.20;;;;;;;-0.38;100.00;103143.97;5109700;28;20182;-72
2024/01/08 03:03:57;;;;;;;6.00;2.80;;;;;;;-0.55;100.00;103121.91;5095543;28;21010;-72
2024/01/08 03:06:23;;;;;;;6.10;3.00;;;;;;;-1.10;100.00;103068.19;5111478;27;20503;-72
2024/01/08 03:08:48;;;;;;;6.60;3.27;;;;;;;-0.68;100.00;103155.00;5092651;28;20182;-72
2024/01/08 03:11:14;;;;;;;6.73;2.97;;;;;;;-0.50;100.00;103135.72;5107933;28;20182;-72
2024/01/08 03:13:39;;;;;;;6.53;2.73;;;;;;;-0.60;100.00;103184.53;5093359;28;20210;-72
2024/01/08 03:16:05;;;;;;;11.00;2.77;;;;;;;-0.92;100.00;103101.63;5106474;28;20183;-72
2024/01/08 03:18:30;;;;;;;5.87;2.70;;;;;;;-1.29;100.00;103033.94;5094069;28;20175;-72
2024/01/08 03:20:56;;;;;;;5.40;2.33;;;;;;;-1.48;100.00;103003.13;5088407;28;21141;-72
2024/01/08 03:23:24;;;;;;;6.80;2.70;;;;;;;-0.61;100.00;103127.44;5118353;28;20200;-72
2024/01/08 03:25:49;;;;;;;5.43;2.33;;;;;;;-1.40;100.00;103026.50;5107401;28;20229;-72
2024/01/08 03:28:14;;;;;;;5.10;2.30;;;;;;;-0.57;100.00;103136.94;5111314;27;20522;-72
2024/01/08 03:30:43;;;;;;;6.13;2.67;;;;;;;-0.61;100.00;103145.03;5106193;28;20187;-72
2024/01/08 03:33:08;;;;;;;5.20;2.35;;;;;;;-1.24;100.00;103027.53;5109426;28;20234;-72
2024/01/08 03:35:34;;;;;;;5.60;2.90;;;;;;;-1.50;100.00;102965.50;5110016;28;20543;-72
2024/01/08 03:38:00;;;;;;;5.57;2.50;;;;;;;-1.13;100.00;103040.19;5091034;28;20273;-72
2024/01/08 03:40:25;;;;;;;6.03;2.87;;;;;;;-1.24;100.00;103013.53;5110020;28;20529;-72
2024/01/08 03:42:51;;;;;;;5.70;3.00;;;;;;;-0.73;100.00;103059.47;5114732;28;20201;-72
2024/01/08 03:45:16;;;;;;;6.00;2.40;;;;;;;-1.09;100.00;103054.13;5111395;28;20261;-72
2024/01/08 03:47:42;;;;;;;6.77;3.10;;;;;;;-1.10;100.00;103040.06;5113849;27;20604;-72
2024/01/08 03:50:08;;;;;;;5.80;2.83;;;;;;;-0.75;100.00;103099.09;5109099;28;20205;-72
2024/01/08 03:52:33;;;;;;;5.83;2.77;;;;;;;-0.55;100.00;103108.72;5106770;28;20701;-72
2024/01/08 03:54:58;;;;;;;8.13;3.40;;;;;;;-0.86;100.00;103089.97;5107720;28;20198;-72
2024/01/08 03:57:24;;;;;;;5.00;2.60;;;;;;;-1.10;100.00;103079.56;5091968;28;20183;-72
2024/01/08 03:59:49;;;;;;;5.37;2.80;;;;;;;-1.23;100.00;103063.47;5092975;28;20185;-72
2024/01/08 04:02:15;;;;;;;7.00;2.67;;;;;;;-0.92;100.00;103075.28;5109671;28;20186;-72
2024/01/08 04:04:42;;;;;;;7.47;3.10;;;;;;;-1.15;100.00;103105.28;5109060;28;20274;-72
2024/01/08 04:07:11;;;;;;;6.13;3.03;;;;;;;-1.14;100.00;103085.91;5105182;27;20185;-72
2024/01/08 04:09:38;;;;;;;6.03;2.50;;;;;;;-1.00;100.00;103127.47;5112686;28;21058;-72
2024/01/08 04:25:51;;;;;;;5.07;2.13;;;;;;;-1.66;100.00;103035.53;5102983;27;1472761;-70
2024/01/08 04:28:20;;;;;;;7.00;3.13;;;;;;;-1.87;100.00;103014.47;5131843;27;20486;-70
2024/01/08 04:30:45;;;;;;;6.73;2.70;;;;;;;-2.42;100.00;102930.00;5135934;27;20180;-70
2024/01/08 04:33:10;;;;;;;5.93;2.47;;;;;;;-2.08;100.00;102962.78;5133424;27;20784;-69
2024/01/08 04:35:36;;;;;;;7.03;3.00;;;;;;;-1.86;100.00;102989.84;5116960;27;20673;-70
2024/01/08 04:38:02;;;;;;;5.33;2.60;;;;;;;-2.41;100.00;102901.94;5118809;27;20248;-68
2024/01/08 04:40:27;;;;;;;6.00;2.80;;;;;;;-1.44;100.00;103028.41;5134054;27;20185;-69
2024/01/08 04:42:53;;;;;;;5.53;2.70;;;;;;;-1.80;100.00;102957.16;5118261;27;20180;-70
2024/01/08 04:45:18;;;;;;;5.37;2.27;;;;;;;-1.91;100.00;102959.41;5130242;27;20257;-68
2024/01/08 04:47:44;;;;;;;5.83;2.50;;;;;;;-1.01;100.00;103025.66;5127623;27;20229;-70
2024/01/08 04:50:09;;;;;;;8.73;2.90;;;;;;;-1.44;100.00;103014.41;5134129;27;21182;-70
2024/01/08 04:52:35;;;;;;;6.53;2.80;;;;;;;-1.80;100.00;102951.06;5136501;27;20698;-70
2024/01/08 04:55:00;;;;;;;6.27;2.80;;;;;;;-1.26;100.00;102991.66;5136489;27;20553;-70
2024/01/08 04:57:28;;;;;;;7.50;2.97;;;;;;;-1.65;100.00;102924.06;5135302;27;20206;-70
2024/01/08 04:59:53;;;;;;;8.20;3.10;;;;;;;-0.90;100.00;103065.50;5135056;27;20181;-71
2024/01/08 05:02:19;;;;;;;6.90;2.60;;;;;;;-1.86;100.00;102949.56;5114429;27;20469;-70
2024/01/08 05:04:44;;;;;;;5.90;2.63;;;;;;;-1.77;100.00;102945.66;5130024;27;20638;-69
2024/01/08 05:07:12;;;;;;;5.40;2.43;;;;;;;-1.06;100.00;103040.81;5127964;27;20230;-70
2024/01/08 05:09:37;;;;;;;7.40;2.50;;;;;;;-1.10;100.00;103028.69;5117008;27;20631;-70
2024/01/08 05:12:03;;;;;;;6.47;3.47;;;;;;;-1.93;100.00;102916.56;5122843;27;20418;-69
2024/01/08 05:14:28;;;;;;;6.47;2.40;;;;;;;-1.25;100.00;103001.25;5119244;27;20192;-68
2024/01/08 05:16:54;;;;;;;5.53;2.63;;;;;;;-1.27;100.00;103009.25;5128751;27;20499;-70
2024/01/08 05:19:19;;;;;;;6.00;2.50;;;;;;;-1.63;100.00;102964.34;5118380;27;20222;-70
2024/01/08 05:21:45;;;;;;;7.27;2.83;;;;;;;-1.28;100.00;103009.31;5113085;27;20245;-70
2024/01/08 05:24:11;;;;;;;7.33;2.27;;;;;;;-1.50;100.00;102970.78;5115804;27;20448;-70
2024/01/08 05:26:36;;;;;;;7.87;3.00;;;;;;;-1.27;100.00;102977.66;5121727;27;20186;-70
2024/01/08 05:29:02;;;;;;;7.60;2.70;;;;;;;-1.03;100.00;102987.97;5105466;27;20283;-69
2024/01/08 05:31:27;;;;;;;6.90;2.77;;;;;;;-1.70;100.00;102894.50;5097026;28;20194;-70
2024/01/08 05:33:52;;;;;;;9.45;2.70;;;;;;;-1.73;100.00;102903.38;5100961;27;20182;-69
2024/01/08 05:36:18;;;;;;;5.90;2.70;;;;;;;-1.29;100.00;102944.41;5099719;27;20337;-70
2024/01/08 05:38:43;;;;;;;8.80;3.27;;;;;;;-1.49;100.00;102906.69;5120683;27;20210;-70
2024/01/08 05:41:09;;;;;;;6.80;2.50;;;;;;;-1.29;100.00;102966.31;5119423;27;20190;-69
2024/01/08 05:43:37;;;;;;;6.50;2.60;;;;;;;-1.13;100.00;102992.78;5107853;27;20197;-68
2024/01/08 05:46:07;;;;;;;9.27;3.67;;;;;;;-1.84;100.00;102863.53;5103818;27;20198;-71
2024/01/08 05:48:39;;;;;;;8.13;2.90;;;;;;;-1.14;100.00;103002.47;5120152;27;21047;-69
2024/01/08 05:51:05;;;;;;;10.27;3.07;;;;;;;-1.05;100.00;102992.47;5120503;27;20440;-70
2024/01/08 05:53:33;;;;;;;6.43;2.40;;;;;;;-0.90;100.00;103004.91;5100975;27;20444;-70
2024/01/08 05:55:59;;;;;;;5.70;2.53;;;;;;;-1.23;100.00;102957.28;5120374;27;21272;-70
2024/01/08 05:58:25;;;;;;;7.07;2.50;;;;;;;-1.02;100.00;102973.88;5126287;27;20530;-70
2024/01/08 06:00:53;;;;;;;9.37;2.40;;;;;;;-1.24;100.00;102932.75;5103810;27;20228;-70
2024/01/08 06:03:22;;;;;;;8.00;2.90;;;;;;;-1.79;100.00;102835.25;5100289;27;20181;-71
2024/01/08 06:05:49;;;;;;;11.10;3.23;;;;;;;-0.89;100.00;102961.84;5106397;27;20436;-70
2024/01/08 06:08:14;;;;;;;10.37;2.90;;;;;;;-1.40;100.00;102876.44;5110353;27;20463;-71
2024/01/08 06:10:40;;;;;;;6.47;2.90;;;;;;;-0.91;100.00;102948.72;5101682;27;20431;-68
2024/01/08 06:13:07;;;;;;;9.20;2.70;;;;;;;-0.81;100.00;102945.66;5118008;27;20209;-70
2024/01/08 06:15:33;;;;;;;8.90;2.70;;;;;;;-1.11;100.00;102874.22;5110810;27;20427;-70
2024/01/08 06:17:59;;;;;;;7.87;3.07;;;;;;;-0.79;100.00;102954.34;5100035;27;20455;-71
2024/01/08 06:20:24;;;;;;;8.20;3.27;;;;;;;-1.11;100.00;102916.38;5120376;27;20799;-70
2024/01/08 06:22:49;;;;;;;6.27;2.83;;;;;;;-1.37;100.00;102863.13;5113762;27;20198;-71
2024/01/08 06:25:15;;;;;;;8.73;2.60;;;;;;;-0.92;100.00;102944.41;5116343;27;20280;-70
2024/01/08 06:27:40;;;;;;;9.45;3.05;;;;;;;-1.11;100.00;102868.97;5110449;27;20210;-69
2024/01/08 06:30:06;;;;;;;8.10;3.00;;;;;;;-1.06;100.00;102846.75;5095975;27;20182;-69
2024/01/08 06:32:32;;;;;;;6.63;2.70;;;;;;;-1.41;100.00;102793.13;5101122;27;20849;-70
2024/01/08 06:34:57;;;;;;;7.50;2.70;;;;;;;-1.09;100.00;102861.84;5099625;27;20436;-70
2024/01/08 06:37:23;;;;;;;7.60;2.73;;;;;;;-0.89;100.00;102787.97;5085575;27;20574;-68
2024/01/08 06:39:48;;;;;;;7.60;2.50;;;;;;;-1.14;100.00;102735.66;5100463;27;20189;-70
2024/01/08 06:42:14;;;;;;;7.33;2.80;;;;;;;-0.80;100.00;102795.41;5116800;27;20186;-70
2024/01/08 06:44:39;;;;;;;6.17;2.43;;;;;;;-0.78;100.00;102813.75;5102040;27;20214;-70
2024/01/08 06:47:05;;;;;;;8.90;2.93;;;;;;;-1.25;100.00;102748.47;5116603;27;20213;-70
2024/01/08 06:49:30;;;;;;;7.53;2.87;;;;;;;-0.82;100.00;102815.69;5111154;27;20631;-69
2024/01/08 06:51:56;;;;;;;6.67;2.60;;;;;;;-0.90;100.00;102820.50;5102426;27;20551;-70
2024/01/08 06:54:22;;;;;;;5.77;2.53;;;;;;;-0.81;100.00;102835.88;5093780;27;20251;-70
2024/01/08 06:56:47;;;;;;;6.37;3.30;;;;;;;-1.05;100.00;102802.81;5110238;27;20267;-70
2024/01/08 06:59:14;;;;;;;8.60;2.90;;;;;;;-0.84;100.00;102809.69;5101439;27;20192;-70
2024/01/08 07:01:39;;;;;;;6.87;2.60;;;;;;;-0.85;100.00;102817.63;5103662;27;20265;-70
2024/01/08 07:04:05;;;;;;;8.03;3.50;;;;;;;-0.90;100.00;102804.69;5111678;27;20472;-70
2024/01/08 07:06:31;;;;;;;7.17;3.20;;;;;;;-0.99;100.00;102781.44;5115318;27;20265;-70
2024/01/08 07:08:57;;;;;;;5.53;2.63;;;;;;;-0.73;100.00;102804.69;5104784;27;20299;-70
2024/01/08 07:11:23;;;;;;;7.47;2.73;;;;;;;-1.56;100.00;102680.69;5105761;27;20439;-70
2024/01/08 07:13:49;;;;;;;6.93;2.97;;;;;;;-1.10;100.00;102749.50;5102723;27;20192;-70
2024/01/08 07:16:15;;;;;;;6.20;2.40;;;;;;;-1.24;100.00;102692.28;5116443;27;20503;-70
2024/01/08 07:18:41;;;;;;;6.40;2.30;;;;;;;-0.81;100.00;102808.63;5098901;27;20201;-69
2024/01/08 07:21:07;;;;;;;6.40;2.30;;;;;;;-0.58;100.00;102882.16;5115582;27;20473;-70
2024/01/08 07:23:35;;;;;;;5.43;2.30;;;;;;;-0.51;100.00;102896.75;5111758;27;20206;-70
2024/01/08 07:26:00;;;;;;;5.63;2.43;;;;;;;-1.01;100.00;102813.13;5119054;27;20442;-70
2024/01/08 07:28:26;;;;;;;11.17;2.40;;;;;;;-0.92;100.00;102827.63;5103345;27;20891;-70
2024/01/08 07:30:52;;;;;;;7.17;1.80;;;;;;;-0.91;100.00;102874.13;5085085;27;20178;-71
2024/01/08 07:33:17;;;;;;;4.90;1.63;;;;;;;-0.74;100.00;102911.03;5096202;27;20432;-70
2024/01/08 07:35:43;;;;;;;7.87;1.90;;;;;;;-0.31;100.00;102995.94;5104456;27;20197;-70
2024/01/08 07:38:08;;;;;;;6.90;2.27;;;;;;;-0.45;100.00;102987.84;5098671;27;20198;-71
2024/01/08 07:40:36;;;;;;;6.40;2.37;;;;;;;-0.13;100.00;103052.22;5114794;27;20186;-69
2024/01/08 07:43:02;;;;;;;10.07;2.97;;;;;;;-0.24;100.00;103042.19;5102057;27;20185;-69
2024/01/08 07:45:27;;;;;;;7.27;2.30;;;;;;;-0.06;100.00;103130.16;5115424;27;20463;-70
2024/01/08 07:47:54;;;;;;;6.63;2.30;;;;;;;0.12;100.00;103124.91;5126386;27;20203;-72
2024/01/08 07:50:20;;;;;;;10.00;2.30;;;;;;;-0.29;100.00;103099.59;5110277;27;20186;-71
2024/01/08 07:52:46;;;;;;;7.73;2.40;;;;;;;-0.31;100.00;103087.41;5112317;27;20434;-70
2024/01/08 07:55:12;;;;;;;6.07;2.20;;;;;;;0.03;100.00;103181.63;5113875;27;20197;-71
2024/01/08 07:57:37;;;;;;;5.00;1.77;;;;;;;-0.01;100.00;103177.41;5116092;27;20211;-69
2024/01/08 08:00:06;;;;;;;7.33;1.77;;;;;;;-0.72;100.00;103059.41;5114075;27;20418;-70
2024/01/08 08:02:32;;;;;;;7.13;2.37;;;;;;;0.16;100.00;103209.13;5112708;27;20174;-70
2024/01/08 08:04:58;;;;;;;5.47;2.00;;;;;;;0.12;100.00;103218.13;5112098;27;20456;-71
2024/01/08 08:07:23;;;;;;;5.90;2.40;;;;;;;-0.09;100.00;103198.88;5108597;27;20461;-71
2024/01/08 08:09:49;;;;;;;9.60;1.90;;;;;;;-0.01;100.00;103228.41;5118894;27;20181;-70
2024/01/08 08:12:14;;;;;;;6.80;1.80;;;;;;;0.13;100.00;103221.63;5114530;28;20832;-71
2024/01/08 08:14:40;;;;;;;7.63;1.67;;;;;;;0.23;100.00;103254.56;5113255;28;20178;-70
2024/01/08 08:17:05;;;;;;;7.70;1.73;;;;;;;-0.18;100.00;103214.28;5116670;27;20277;-71
2024/01/08 08:19:31;;;;;;;5.43;1.80;;;;;;;-0.46;100.00;103162.81;5114586;27;20587;-71
2024/01/08 08:21:56;;;;;;;5.47;1.80;;;;;;;-0.47;100.00;103163.72;5114109;27;20204;-69
2024/01/08 08:24:23;;;;;;;7.03;1.80;;;;;;;0.20;100.00;103236.22;5107786;27;20500;-70
2024/01/08 08:26:48;;;;;;;4.47;1.50;;;;;;;-0.32;100.00;103188.53;5102359;27;20173;-69
2024/01/08 08:29:14;;;;;;;5.53;1.97;;;;;;;-0.30;100.00;103208.63;5119490;27;20857;-70
2024/01/08 08:31:39;;;;;;;4.73;1.80;;;;;;;0.11;100.00;103277.09;5115838;28;20189;-69
2024/01/08 08:34:05;;;;;;;15.23;3.43;;;;;;;0.05;100.00;103215.84;5114389;27;20193;-70
2024/01/08 08:36:30;;;;;;;5.53;1.77;;;;;;;0.04;100.00;103251.09;5115048;28;20189;-70
2024/01/08 08:38:59;;;;;;;5.70;2.00;;;;;;;0.40;100.00;103283.66;5095311;28;20236;-71
2024/01/08 08:41:24;;;;;;;5.37;1.97;;;;;;;0.29;100.00;103279.81;5115053;28;20181;-69
2024/01/08 08:43:49;;;;;;;7.83;2.43;;;;;;;0.25;100.00;103302.03;5116330;28;20466;-70
2024/01/08 08:46:17;;;;;;;6.23;2.07;;;;;;;0.22;100.00;103295.09;5112795;27;20190;-70
2024/01/08 08:48:43;;;;;;;5.90;2.37;;;;;;;0.18;100.00;103281.19;5105129;28;20198;-70
2024/01/08 08:51:08;;;;;;;8.60;2.00;;;;;;;0.36;100.00;103297.94;5096874;28;20439;-70
2024/01/08 08:53:34;;;;;;;5.87;2.17;;;;;;;-0.02;100.00;103263.63;5112069;28;20178;-71
2024/01/08 08:56:00;;;;;;;5.47;2.20;;;;;;;0.10;100.00;103243.75;5113075;27;20244;-70
2024/01/08 08:58:26;;;;;;;5.40;1.90;;;;;;;0.39;100.00;103320.72;5096004;28;20202;-71
2024/01/08 09:00:51;;;;;;;7.23;1.70;;;;;;;0.40;100.00;103320.63;5097307;27;21098;-70
2024/01/08 09:03:17;;;;;;;7.03;2.00;;;;;;;0.11;100.00;103263.06;5116277;27;20675;-70
2024/01/08 09:05:42;;;;;;;5.47;1.97;;;;;;;0.38;100.00;103356.84;5099151;28;20182;-71
2024/01/08 09:08:08;;;;;;;4.97;1.90;;;;;;;0.25;100.00;103302.03;5118162;27;20214;-70
2024/01/08 09:10:33;;;;;;;5.73;1.87;;;;;;;0.42;100.00;103357.53;5095296;27;20196;-71
2024/01/08 09:12:59;;;;;;;4.33;1.47;;;;;;;0.44;100.00;103353.06;5121017;27;20189;-70
2024/01/08 09:15:24;;;;;;;6.77;1.90;;;;;;;0.26;100.00;103356.50;5119173;27;20411;-69
2024/01/08 09:17:50;;;;;;;7.43;2.23;;;;;;;0.13;100.00;103272.63;5116938;27;20678;-70
2024/01/08 09:20:15;;;;;;;7.47;2.00;;;;;;;0.17;100.00;103315.56;5113654;27;20242;-69
2024/01/08 09:22:41;;;;;;;6.50;2.47;;;;;;;0.52;100.00;103381.72;5115828;27;20226;-71
2024/01/08 09:25:07;;;;;;;6.80;2.80;;;;;;;0.20;100.00;103366.44;5101458;27;20558;-70
2024/01/08 09:27:32;;;;;;;6.87;2.40;;;;;;;-0.19;100.00;103268.81;5102173;27;20208;-71
2024/01/08 09:29:58;;;;;;;4.43;1.70;;;;;;;0.39;100.00;103347.13;5112029;27;20431;-71
2024/01/08 09:32:24;;;;;;;6.70;2.23;;;;;;;0.36;100.00;103357.81;5103690;27;20182;-69
2024/01/08 09:34:50;;;;;;;6.40;2.10;;;;;;;0.36;100.00;103326.13;5097279;27;20424;-70
2024/01/08 09:37:16;;;;;;;6.33;2.27;;;;;;;0.37;100.00;103359.53;5097263;27;20823;-69
2024/01/08 09:39:41;;;;;;;11.27;1.90;;;;;;;0.52;100.00;103387.00;5127429;27;20436;-70
2024/01/08 09:42:09;;;;;;;5.50;1.87;;;;;;;-0.04;100.00;103306.84;5101497;28;20686;-70
2024/01/08 09:44:37;;;;;;;5.20;1.90;;;;;;;0.40;100.00;103389.28;5091049;27;20207;-70
2024/01/08 09:49:34;;;;;;;4.20;1.60;;;;;;;-1.91;100.00;103004.13;5056650;28;20305;-74
2024/01/08 09:52:07;;;;;;;6.73;2.10;;;;;;;-0.14;100.00;103224.63;5042115;28;20539;-74
2024/01/08 09:54:35;;;;;;;4.83;1.60;;;;;;;-2.45;100.00;102837.28;5043087;28;20496;-74
2024/01/08 09:57:01;;;;;;;4.57;1.63;;;;;;;-0.40;100.00;103156.41;5014447;28;20450;-74
2024/01/08 09:59:29;;;;;;;5.87;2.00;;;;;;;-1.89;100.00;102954.94;5020076;28;20861;-74
2024/01/08 10:01:57;;;;;;;7.53;2.10;;;;;;;-2.24;100.00;102904.72;5014213;28;20197;-74
2024/01/08 10:04:26;;;;;;;7.73;2.47;;;;;;;-0.88;100.00;103124.28;5016172;28;20439;-75
2024/01/08 10:07:07;;;;;;;5.30;2.17;;;;;;;0.78;100.00;103376.09;5016707;28;20999;-75
2024/01/08 10:09:36;;;;;;;6.17;2.23;;;;;;;-0.08;100.00;103278.91;5019755;28;20443;-73
2024/01/08 10:12:02;;;;;;;4.80;2.10;;;;;;;0.00;100.00;103255.66;5018944;28;20430;-74
2024/01/08 10:14:32;;;;;;;4.93;1.60;;;;;;;0.33;100.00;103313.94;5019495;28;20431;-74
2024/01/08 10:17:03;;;;;;;9.53;2.03;;;;;;;-0.07;100.00;103228.69;5046379;28;20487;-73
2024/01/08 10:19:31;;;;;;;5.40;2.13;;;;;;;0.67;100.00;103392.44;5046254;28;21073;-74
2024/01/08 10:22:11;;;;;;;6.90;2.33;;;;;;;-1.03;100.00;103080.19;5012367;28;20443;-73
2024/01/08 10:24:40;;;;;;;5.87;2.30;;;;;;;0.15;100.00;103249.66;5014123;28;20451;-74
2024/01/08 10:27:10;;;;;;;5.30;1.80;;;;;;;0.67;100.00;103320.28;5014560;28;21157;-74
2024/01/08 10:29:40;;;;;;;6.67;2.13;;;;;;;0.54;100.00;103321.78;5015355;28;20918;-74
2024/01/08 10:32:07;;;;;;;4.27;1.47;;;;;;;0.27;100.00;103285.19;5009326;28;20443;-73
2024/01/08 10:34:36;;;;;;;5.03;1.43;;;;;;;0.84;100.00;103370.53;5016244;28;20462;-76
2024/01/08 10:37:04;;;;;;;5.07;1.60;;;;;;;0.53;100.00;103323.56;5014269;28;20454;-74
2024/01/08 10:39:48;;;;;;;;;;;;;;;;;;;;;
2024/01/08 10:42:17;;;;;;;6.13;2.20;;;;;;;0.79;100.00;103363.75;5017092;28;20427;-74
2024/01/08 10:44:42;;;;;;;4.47;1.67;;;;;;;0.86;100.00;103362.50;5010519;28;20942;-76
2024/01/08 10:47:17;;;;;;;5.80;1.93;;;;;;;0.80;100.00;103313.44;5012662;28;20466;-74
2024/01/08 10:49:50;;;;;;;4.20;1.50;;;;;;;0.84;100.00;103364.34;5014494;28;20282;-75
2024/01/08 10:52:27;;;;;;;5.23;1.77;;;;;;;0.78;100.00;103368.19;5045299;28;20440;-75
2024/01/08 10:55:00;;;;;;;7.20;1.87;;;;;;;0.91;100.00;103360.50;5011481;28;20436;-74
2024/01/08 10:57:44;;;;;;;4.80;2.07;;;;;;;0.86;100.00;103362.50;5012205;28;20464;-75
2024/01/08 11:00:12;;;;;;;5.70;1.77;;;;;;;0.59;100.00;103322.41;5001034;28;20470;-74
2024/01/08 11:02:40;;;;;;;6.03;1.93;;;;;;;0.76;100.00;103355.97;4999933;28;20438;-74
2024/01/08 11:05:07;;;;;;;6.47;2.13;;;;;;;0.61;100.00;103350.47;5000047;28;20441;-74
2024/01/08 11:07:40;;;;;;;6.77;1.90;;;;;;;0.75;100.00;103381.50;4998418;28;20467;-74
2024/01/08 11:10:09;;;;;;;7.37;2.27;;;;;;;0.49;100.00;103303.50;5003153;28;21196;-74
2024/01/08 11:13:01;;;;;;;4.10;1.70;;;;;;;0.96;100.00;103378.81;5002662;28;20603;-75
2024/01/08 11:15:30;;;;;;;4.37;2.10;;;;;;;0.37;100.00;103286.44;5032410;28;20432;-75
2024/01/08 11:18:03;;;;;;;4.90;1.80;;;;;;;0.68;100.00;103378.31;5007292;28;21023;-73
2024/01/08 11:20:45;;;;;;;7.30;2.60;;;;;;;0.51;100.00;103319.28;5003252;28;20429;-74
2024/01/08 11:23:40;;;;;;;4.90;1.60;;;;;;;0.86;100.00;103357.22;5004302;28;20428;-73
2024/01/08 11:26:22;;;;;;;5.50;2.20;;;;;;;0.34;100.00;103277.81;4995318;28;20526;-73
2024/01/08 11:29:06;;;;;;;5.23;2.00;;;;;;;0.79;100.00;103326.75;5002793;28;20935;-73
2024/01/08 11:32:13;;;;;;;9.47;2.10;;;;;;;0.86;100.00;103351.94;5033699;28;21184;-73
2024/01/08 11:35:03;;;;;;;5.10;2.03;;;;;;;0.83;100.00;103352.09;4992950;28;20974;-74
2024/01/08 11:37:50;;;;;;;5.30;2.07;;;;;;;0.92;100.00;103361.34;5002026;28;20514;-74